Folsom, CA

7:40 PM PDT on August 22, 2014 (GMT -0700)
Sierra Woods | Change Station
CLOSE
Current Station
Personal Weather Station
Location: Folsom, CA
Elevation: 351 ft
Nearby Weather Stations

Elev 351 ft 38.68 °N, 121.15 °W | Updated 2 seconds ago

Clear
Clear
80.0 °F
Feels Like 81 °F
N
0.0
Wind Variable Wind from South
Gusts 11.0 mph

Today
High -- | Low -- °F
--% Chance of Precip.
Yesterday
High -- | Low -- °F
Precip. -- in
6:24 AM 7:49 PM
Waning Crescent, 6% visible
Pressure 29.82 in
Visibility 10.0 miles
Clouds Clear
Heat Index 81 °F
Dew Point 58 °F
Humidity 47%
Rainfall 0.00 in
Snow Depth Not available.
UV 1 out of 12
Pollen 7.30 out of 12
Ozone Good
PM2.5 Good
Flu Activity Not available.
METAR KMHR 230145Z 19010KT 10SM SKC 28/13 A2982

More Conditions Fewer Conditions

Pressure 29.82 in
Visibility 10.0 miles
Clouds Clear
Heat Index 81 °F
Dew Point 58 °F
Humidity 47%
Rainfall 0.00 in
Snow Depth Not available.
UV 1 out of 12
Pollen 7.30 out of 12
Ozone Good
PM2.5 Good
Flu Activity Not available.
METAR KMHR 230145Z 19010KT 10SM SKC 28/13 A2982

More Conditions Fewer Conditions

10-Day Weather Forecast

Almanac

Astronomy

Aug. 22, 2014 Rise Set
Actual Time 6:24 AM PDT 7:49 PM PDT
Civil Twilight 5:57 AM PDT 8:17 PM PDT
Nautical Twilight 5:23 AM PDT 8:50 PM PDT
Astronomical Twilight 4:48 AM PDT 9:25 PM PDT
Moon 3:53 AM PDT (8/22) 6:00 PM PDT (8/22)
Length of Visible Light 14h 19m
Length of Day
13h 24m
Tomorrow will be 2m 18s shorter.
Waning Crescent, 6% of the Moon is Illuminated
Today
Waning Crescent
Aug 25
New
Sep 2
First Quarter
Sep 8
Full
Sep 15
Last Quarter

Today's Extremes

State Highs State Lows

Community

WunderPhotos

Upload Photos

1,746,348 photos uploaded!

WunderBlogs® & News

Nearby

Air Quality

  Air Quality AQ Index Pollutant
Yesterday Good
OZONE
Yesterday Good
PM10
Current Good
PM2.5
Current Good
OZONE
Friday Moderate
OZONE
Saturday Moderate
OZONE
Sunday Moderate
OZONE
Monday Moderate
OZONE
Tuesday Moderate
OZONE
Wednesday Moderate
OZONE

Snow Depth

Station Depth Elevation
CSS Lab 0 in 6900 ft
Monitor Pass 0 in 8350 ft
Leavitt Meadows 0 in 7200 ft
Summit Meadow 0 in 9122 ft
Adin Mountain 1 in 6200 ft

Earthquake Activity

City Distance Mag. Time & Date
Berkeley, California 81 miles 2.6 7:41 PM PDT
2014-08-16
Minimum magnitude displayed is 2.5.

Coastal Water Temperatures

Place Temperature
No Stations Reporting

Nearby Weather Stations